createdAt,value
2019-02-26T00:00:49.666Z,96.60
2019-02-26T00:03:23.866Z,96.70
2019-02-26T00:05:52.139Z,97.30
2019-02-26T00:08:26.263Z,97.30
2019-02-26T00:10:57.065Z,97.40
2019-02-26T00:13:29.458Z,97.20
2019-02-26T00:16:03.264Z,96.50
2019-02-26T00:18:31.225Z,96.10
2019-02-26T00:21:02.870Z,95.70
2019-02-26T00:23:33.323Z,96.00
2019-02-26T00:26:03.506Z,96.30
2019-02-26T00:28:34.173Z,96.40
2019-02-26T00:31:06.048Z,97.00
2019-02-26T00:33:36.358Z,96.70
2019-02-26T00:36:07.176Z,96.70
2019-02-26T00:38:40.010Z,96.90
2019-02-26T00:41:10.435Z,96.90
2019-02-26T00:43:40.605Z,97.30
2019-02-26T00:46:10.838Z,97.40
2019-02-26T00:48:43.044Z,97.60
2019-02-26T00:51:12.815Z,97.80
2019-02-26T00:53:43.099Z,98.10
2019-02-26T00:56:13.305Z,98.00
2019-02-26T00:58:44.152Z,97.80
2019-02-26T01:01:17.732Z,97.80
2019-02-26T01:03:49.234Z,97.30
2019-02-26T01:06:19.380Z,97.20
2019-02-26T01:08:49.618Z,96.60
2019-02-26T01:11:21.473Z,96.80
2019-02-26T01:13:52.844Z,97.10
2019-02-26T01:16:23.679Z,97.60
2019-02-26T01:18:53.901Z,97.90
2019-02-26T01:21:26.252Z,98.30
2019-02-26T01:23:56.619Z,98.60
2019-02-26T01:26:27.944Z,98.80
2019-02-26T01:28:58.607Z,98.10
2019-02-26T01:31:31.694Z,98.20
2019-02-26T01:34:01.773Z,98.00
2019-02-26T01:36:32.117Z,98.00
2019-02-26T01:39:02.323Z,98.20
2019-02-26T01:41:32.666Z,98.10
2019-02-26T01:44:03.025Z,97.70
2019-02-26T01:46:34.555Z,97.90
2019-02-26T01:49:05.005Z,98.50
2019-02-26T01:51:35.228Z,98.30
2019-02-26T01:54:07.376Z,98.90
2019-02-26T01:56:37.330Z,99.10
2019-02-26T01:59:07.480Z,99.20
2019-02-26T02:01:40.036Z,98.90
2019-02-26T02:04:11.046Z,99.20
2019-02-26T02:06:58.886Z,99.80
2019-02-26T02:09:29.308Z,99.90
2019-02-26T02:12:00.421Z,99.90
2019-02-26T02:14:31.826Z,99.90
2019-02-26T02:19:50.050Z,99.90
2019-02-26T02:22:21.331Z,99.90
2019-02-26T02:24:53.400Z,99.90
2019-02-26T02:27:26.846Z,99.90
2019-02-26T02:29:57.667Z,99.90
2019-02-26T02:32:29.643Z,99.90
2019-02-26T02:35:03.474Z,99.90
2019-02-26T02:37:31.931Z,99.90
2019-02-26T02:40:02.329Z,99.90
2019-02-26T02:42:34.731Z,99.90
2019-02-26T02:45:05.167Z,99.90
2019-02-26T02:47:38.693Z,99.90
2019-02-26T02:50:12.075Z,99.90
2019-02-26T02:52:41.462Z,99.90
2019-02-26T02:55:13.879Z,99.90
2019-02-26T02:57:43.507Z,99.90
2019-02-26T03:00:13.995Z,99.90
2019-02-26T03:02:46.643Z,99.90
2019-02-26T03:05:16.208Z,99.90
2019-02-26T03:07:50.376Z,99.90
2019-02-26T03:10:18.461Z,99.90
2019-02-26T03:12:53.842Z,99.90
2019-02-26T03:15:21.849Z,99.90
2019-02-26T03:17:52.348Z,99.90
2019-02-26T03:20:24.725Z,99.90
2019-02-26T03:22:55.397Z,99.90
2019-02-26T03:25:27.000Z,99.90
2019-02-26T03:27:57.588Z,99.90
2019-02-26T03:30:37.042Z,99.90
2019-02-26T03:33:04.628Z,99.90
2019-02-26T03:35:35.093Z,99.90
2019-02-26T03:38:05.979Z,99.90
2019-02-26T03:40:36.298Z,99.90
2019-02-26T03:43:10.846Z,99.90
2019-02-26T03:45:41.269Z,99.90
2019-02-26T03:48:13.534Z,99.90
2019-02-26T03:50:45.674Z,99.90
2019-02-26T03:53:15.974Z,99.90
2019-02-26T03:55:46.381Z,99.90
2019-02-26T03:58:16.613Z,99.90
2019-02-26T04:00:47.050Z,99.90
2019-02-26T04:03:17.609Z,99.90
2019-02-26T04:05:47.934Z,99.90
2019-02-26T04:08:19.957Z,99.90
2019-02-26T04:10:52.734Z,99.90
2019-02-26T04:13:22.048Z,99.90
2019-02-26T04:15:54.095Z,99.90
2019-02-26T04:18:23.973Z,99.90
2019-02-26T04:20:56.830Z,99.90
2019-02-26T04:23:26.244Z,99.90
2019-02-26T04:26:35.046Z,99.90
2019-02-26T04:29:21.067Z,99.90
2019-02-26T04:32:49.024Z,99.90
2019-02-26T04:35:37.435Z,99.90
2019-02-26T04:38:53.181Z,99.90
2019-02-26T04:41:57.074Z,99.90
2019-02-26T04:45:10.319Z,99.90
2019-02-26T04:47:40.967Z,99.90
2019-02-26T04:50:11.338Z,99.90
2019-02-26T04:52:43.553Z,99.90
2019-02-26T04:55:13.666Z,99.90
2019-02-26T04:57:46.618Z,99.90
2019-02-26T05:00:16.058Z,99.90
2019-02-26T05:02:46.297Z,99.90
2019-02-26T05:05:16.554Z,99.90
2019-02-26T05:07:49.299Z,99.90
2019-02-26T05:10:20.334Z,99.90
2019-02-26T05:12:53.229Z,99.90
2019-02-26T05:15:23.282Z,99.90
2019-02-26T05:17:54.526Z,99.90
2019-02-26T05:20:24.672Z,99.90
2019-02-26T05:22:58.478Z,99.90
2019-02-26T05:25:28.326Z,99.90
2019-02-26T05:27:58.708Z,99.90
2019-02-26T05:30:28.837Z,99.90
2019-02-26T05:33:00.825Z,99.90
2019-02-26T05:35:31.116Z,99.90
2019-02-26T05:38:03.505Z,99.90
2019-02-26T05:40:37.436Z,99.90
2019-02-26T05:43:06.751Z,99.90
2019-02-26T05:45:37.337Z,99.90
2019-02-26T05:48:07.451Z,99.90
2019-02-26T05:50:38.587Z,99.90
2019-02-26T05:53:11.422Z,99.90
2019-02-26T05:55:44.168Z,99.90
2019-02-26T05:58:15.824Z,99.90
2019-02-26T06:00:45.517Z,99.90
2019-02-26T06:03:18.552Z,99.90
2019-02-26T06:05:49.101Z,99.90
2019-02-26T06:08:19.684Z,99.90
2019-02-26T06:10:49.809Z,99.90
2019-02-26T06:13:20.073Z,99.90
2019-02-26T06:15:51.386Z,99.90
2019-02-26T06:18:22.256Z,99.90
2019-02-26T06:20:53.543Z,99.90
2019-02-26T06:23:25.530Z,99.90
2019-02-26T06:25:58.407Z,99.90
2019-02-26T06:28:28.033Z,99.90
2019-02-26T06:30:58.335Z,99.90
2019-02-26T06:33:31.718Z,99.90
2019-02-26T06:36:01.662Z,99.90
2019-02-26T06:38:32.784Z,99.90
2019-02-26T06:41:04.137Z,99.90
2019-02-26T06:43:37.497Z,99.90
2019-02-26T06:46:09.237Z,99.90
2019-02-26T06:48:38.081Z,99.90
2019-02-26T06:51:08.321Z,99.90
2019-02-26T06:53:38.545Z,99.90
2019-02-26T06:56:08.742Z,99.90
2019-02-26T06:58:40.678Z,99.90
2019-02-26T07:01:12.090Z,99.90
2019-02-26T07:03:42.717Z,99.90
2019-02-26T07:06:18.509Z,99.90
2019-02-26T07:08:48.990Z,99.90
2019-02-26T07:11:20.451Z,99.90
2019-02-26T07:13:50.600Z,99.90
2019-02-26T07:16:21.198Z,99.90
2019-02-26T07:18:55.494Z,99.90
2019-02-26T07:21:26.232Z,99.90
2019-02-26T07:23:56.942Z,99.90
2019-02-26T07:26:28.400Z,99.90
2019-02-26T07:28:58.700Z,99.90
2019-02-26T07:31:30.848Z,99.90
2019-02-26T07:34:03.060Z,99.90
2019-02-26T07:36:32.540Z,99.90
2019-02-26T07:39:05.087Z,99.90
2019-02-26T07:41:35.074Z,99.90
2019-02-26T07:44:08.744Z,99.90
2019-02-26T07:46:38.502Z,99.90
2019-02-26T07:49:09.118Z,99.90
2019-02-26T07:51:40.546Z,99.90
2019-02-26T07:54:14.705Z,99.90
2019-02-26T07:56:45.474Z,99.90
2019-02-26T07:59:27.244Z,99.90
2019-02-26T08:01:50.219Z,99.90
2019-02-26T08:04:21.561Z,99.90
2019-02-26T08:06:54.155Z,99.90
2019-02-26T08:09:24.054Z,99.90
2019-02-26T08:11:54.293Z,99.90
2019-02-26T08:14:25.674Z,99.90
2019-02-26T08:16:56.749Z,99.90
2019-02-26T08:19:29.779Z,99.90
2019-02-26T08:21:59.586Z,99.90
2019-02-26T08:24:29.814Z,99.90
2019-02-26T08:27:01.448Z,99.90
2019-02-26T08:29:34.269Z,99.90
2019-02-26T08:32:05.182Z,99.90
2019-02-26T08:34:39.163Z,99.90
2019-02-26T08:37:14.189Z,99.90
2019-02-26T08:39:46.225Z,99.90
2019-02-26T08:42:17.035Z,99.90
2019-02-26T08:44:48.758Z,99.90
2019-02-26T08:47:21.037Z,99.90
2019-02-26T08:49:50.842Z,99.90
2019-02-26T08:52:22.722Z,99.90
2019-02-26T08:54:53.156Z,99.90
2019-02-26T08:57:25.494Z,99.90
2019-02-26T08:59:58.728Z,99.90
2019-02-26T09:02:28.755Z,99.90
2019-02-26T09:04:59.746Z,99.90
2019-02-26T09:07:32.204Z,99.90
2019-02-26T09:10:06.973Z,99.90
2019-02-26T09:12:36.266Z,99.90
2019-02-26T09:15:07.401Z,99.90
2019-02-26T09:17:39.747Z,99.90
2019-02-26T09:20:12.858Z,99.90
2019-02-26T09:22:48.059Z,99.90
2019-02-26T09:25:17.016Z,99.90
2019-02-26T09:27:47.218Z,99.90
2019-02-26T09:30:17.598Z,99.90
2019-02-26T09:32:47.977Z,99.90
2019-02-26T09:35:20.388Z,99.90
2019-02-26T09:37:52.615Z,99.90
2019-02-26T09:40:23.539Z,99.80
2019-02-26T09:42:56.697Z,99.90
2019-02-26T09:45:29.644Z,99.90
2019-02-26T09:47:58.292Z,99.90
2019-02-26T09:50:28.695Z,99.90
2019-02-26T09:52:59.375Z,98.80
2019-02-26T09:55:29.595Z,99.80
2019-02-26T09:57:59.838Z,98.30
2019-02-26T10:00:29.986Z,97.80
2019-02-26T10:03:00.257Z,98.80
2019-02-26T10:05:31.626Z,95.80
2019-02-26T10:08:05.290Z,94.50
2019-02-26T10:10:39.155Z,94.00
2019-02-26T10:13:07.371Z,94.50
2019-02-26T10:15:39.840Z,93.00
2019-02-26T10:18:11.064Z,94.50
2019-02-26T10:20:43.333Z,93.00
2019-02-26T10:23:13.264Z,92.20
2019-02-26T10:25:43.706Z,91.70
2019-02-26T10:28:14.905Z,88.20
2019-02-26T10:30:50.662Z,84.50
2019-02-26T10:33:21.185Z,83.10
2019-02-26T10:35:51.428Z,83.10
2019-02-26T10:38:21.705Z,77.90
2019-02-26T10:40:56.193Z,77.00
2019-02-26T10:43:23.719Z,76.80
2019-02-26T10:45:54.905Z,74.60
2019-02-26T10:48:27.834Z,80.80
2019-02-26T10:50:56.881Z,71.40
2019-02-26T10:53:27.604Z,69.90
2019-02-26T10:55:58.264Z,72.30
2019-02-26T10:58:28.480Z,73.80
2019-02-26T11:01:01.136Z,69.70
2019-02-26T11:03:35.398Z,68.80
2019-02-26T11:06:04.620Z,70.70
2019-02-26T11:08:35.098Z,69.40
2019-02-26T11:11:07.994Z,66.90
2019-02-26T11:13:40.120Z,61.00
2019-02-26T11:16:09.348Z,60.90
2019-02-26T11:18:40.668Z,59.70
2019-02-26T11:21:11.413Z,62.50
2019-02-26T11:23:43.849Z,63.20
2019-02-26T11:26:15.412Z,61.20
2019-02-26T11:28:45.966Z,59.80
2019-02-26T11:31:20.429Z,62.10
2019-02-26T11:33:49.096Z,58.50
2019-02-26T11:36:25.158Z,58.00
2019-02-26T11:38:55.882Z,57.80
2019-02-26T11:41:27.148Z,54.20
2019-02-26T11:43:58.527Z,53.60
2019-02-26T11:46:29.901Z,52.70
2019-02-26T11:49:00.822Z,51.50
2019-02-26T11:51:37.147Z,51.00
2019-02-26T11:54:05.054Z,50.70
2019-02-26T11:56:37.395Z,50.10
2019-02-26T11:59:09.121Z,49.90
2019-02-26T12:01:39.526Z,49.30
2019-02-26T12:04:11.369Z,48.60
2019-02-26T12:06:42.439Z,48.30
2019-02-26T12:09:14.231Z,48.20
2019-02-26T12:11:44.583Z,47.40
2019-02-26T12:14:19.503Z,48.20
2019-02-26T12:16:49.892Z,45.40
2019-02-26T12:19:25.654Z,44.90
2019-02-26T12:21:57.503Z,44.70
2019-02-26T12:24:28.991Z,44.20
2019-02-26T12:26:59.414Z,43.70
2019-02-26T12:29:29.528Z,44.20
2019-02-26T12:32:01.197Z,43.20
2019-02-26T12:34:35.199Z,44.00
2019-02-26T12:37:06.610Z,44.70
2019-02-26T12:39:37.799Z,42.30
2019-02-26T12:42:10.579Z,39.90
2019-02-26T12:44:45.520Z,39.20
2019-02-26T12:47:21.508Z,41.10
2019-02-26T12:49:53.187Z,42.60
2019-02-26T12:52:26.913Z,42.40
2019-02-26T12:54:57.828Z,41.80
2019-02-26T12:57:31.054Z,40.60
2019-02-26T13:00:00.935Z,43.30
2019-02-26T13:02:36.270Z,43.10
2019-02-26T13:05:10.395Z,41.90
2019-02-26T13:07:40.916Z,42.50
2019-02-26T13:10:15.837Z,41.80
2019-02-26T13:12:49.682Z,40.90
2019-02-26T13:15:22.675Z,41.10
2019-02-26T13:17:57.220Z,39.90
2019-02-26T13:20:27.359Z,40.20
2019-02-26T13:23:16.239Z,39.20
2019-02-26T13:25:31.218Z,40.30
2019-02-26T13:28:01.505Z,40.60
2019-02-26T13:30:32.985Z,40.50
2019-02-26T13:33:12.732Z,43.20
2019-02-26T13:35:35.244Z,41.10
2019-02-26T13:38:05.566Z,40.60
2019-02-26T13:43:09.200Z,41.20
2019-02-26T13:45:39.702Z,41.40
2019-02-26T13:48:09.958Z,39.30
2019-02-26T13:50:40.157Z,39.60
2019-02-26T13:53:10.488Z,39.70
2019-02-26T13:55:40.678Z,37.30
2019-02-26T13:58:11.930Z,38.20
2019-02-26T14:00:42.958Z,39.10
2019-02-26T14:03:13.306Z,38.80
2019-02-26T14:05:43.566Z,39.90
2019-02-26T14:08:13.733Z,39.90
2019-02-26T14:10:43.853Z,40.20
2019-02-26T14:13:14.145Z,40.00
2019-02-26T14:15:44.423Z,39.90
2019-02-26T14:18:14.619Z,38.70
2019-02-26T14:20:45.593Z,37.70
2019-02-26T14:23:16.053Z,38.10
2019-02-26T14:25:46.528Z,39.30
2019-02-26T14:28:16.729Z,40.30
2019-02-26T14:30:46.966Z,41.80
2019-02-26T14:33:17.109Z,41.00
2019-02-26T14:35:47.291Z,43.70
2019-02-26T14:38:17.530Z,42.40
2019-02-26T14:40:47.703Z,42.10
2019-02-26T14:43:17.970Z,41.70
2019-02-26T14:45:48.247Z,42.10
2019-02-26T14:48:18.468Z,40.80
2019-02-26T14:50:48.671Z,39.20
2019-02-26T14:53:18.893Z,38.20
2019-02-26T14:55:49.140Z,37.00
2019-02-26T14:58:19.530Z,34.80
2019-02-26T15:00:57.314Z,35.10
2019-02-26T15:03:21.783Z,33.60
2019-02-26T15:05:51.993Z,34.90
2019-02-26T15:08:22.198Z,34.00
2019-02-26T15:10:52.405Z,35.90
2019-02-26T15:13:22.660Z,35.80
2019-02-26T15:15:52.955Z,35.10
2019-02-26T15:18:23.038Z,34.30
2019-02-26T15:20:53.162Z,33.70
2019-02-26T15:23:23.615Z,32.20
2019-02-26T15:25:53.885Z,32.30
2019-02-26T15:28:24.040Z,32.40
2019-02-26T15:30:54.378Z,32.70
2019-02-26T15:33:24.537Z,34.50
2019-02-26T15:35:54.720Z,34.40
2019-02-26T15:38:27.396Z,37.20
2019-02-26T15:40:57.836Z,38.00
2019-02-26T15:43:27.925Z,38.80
2019-02-26T15:45:59.832Z,38.70
2019-02-26T15:48:30.181Z,38.80
2019-02-26T15:51:00.077Z,38.90
2019-02-26T15:53:30.498Z,38.80
2019-02-26T15:56:00.817Z,37.80
2019-02-26T15:58:31.016Z,37.80
2019-02-26T16:01:01.257Z,38.30
2019-02-26T16:03:31.650Z,40.10
2019-02-26T16:06:01.925Z,40.00
2019-02-26T16:08:34.523Z,40.10
2019-02-26T16:11:03.933Z,40.40
2019-02-26T16:13:34.224Z,39.90
2019-02-26T16:16:04.709Z,41.20
2019-02-26T16:18:34.897Z,41.90
2019-02-26T16:21:05.019Z,42.50
2019-02-26T16:23:35.260Z,42.90
2019-02-26T16:26:05.688Z,44.50
2019-02-26T16:28:37.337Z,46.20
2019-02-26T16:31:08.963Z,46.80
2019-02-26T16:33:39.165Z,46.90
2019-02-26T16:36:09.332Z,47.50
2019-02-26T16:38:39.647Z,49.30
2019-02-26T16:41:09.817Z,51.20
2019-02-26T16:43:39.994Z,53.20
2019-02-26T16:46:10.308Z,54.40
2019-02-26T16:48:40.578Z,56.40
2019-02-26T16:51:10.877Z,57.60
2019-02-26T16:53:41.165Z,57.00
2019-02-26T16:56:11.349Z,57.80
2019-02-26T16:58:41.576Z,58.80
2019-02-26T17:01:12.265Z,61.20
2019-02-26T17:03:42.484Z,64.40
2019-02-26T17:06:12.694Z,69.60
2019-02-26T17:08:44.698Z,77.20
2019-02-26T17:11:14.941Z,85.70
2019-02-26T17:13:45.221Z,90.20
2019-02-26T17:16:15.367Z,91.80
2019-02-26T17:18:45.610Z,92.00
2019-02-26T17:21:15.836Z,91.30
2019-02-26T17:23:47.110Z,90.90
2019-02-26T17:26:17.953Z,91.10
2019-02-26T17:28:48.117Z,92.10
2019-02-26T17:31:18.407Z,93.00
2019-02-26T17:33:48.616Z,93.90
2019-02-26T17:36:18.872Z,94.30
2019-02-26T17:38:51.562Z,93.10
2019-02-26T17:41:21.078Z,92.30
2019-02-26T17:43:51.232Z,94.00
2019-02-26T17:46:21.882Z,95.20
2019-02-26T17:48:55.188Z,95.20
2019-02-26T17:51:25.502Z,96.00
2019-02-26T17:53:55.754Z,96.60
2019-02-26T17:56:26.699Z,97.90
2019-02-26T17:58:57.512Z,98.80
2019-02-26T18:01:27.845Z,99.00
2019-02-26T18:03:58.162Z,99.90
2019-02-26T18:06:28.395Z,99.90
2019-02-26T18:08:58.730Z,99.90
2019-02-26T18:11:28.890Z,99.90
2019-02-26T18:14:00.167Z,99.90
2019-02-26T18:16:31.775Z,99.90
2019-02-26T18:19:02.942Z,99.90
2019-02-26T18:21:33.206Z,99.90
2019-02-26T18:24:03.386Z,99.90
2019-02-26T18:26:33.687Z,99.90
2019-02-26T18:29:03.969Z,99.90
2019-02-26T18:31:34.301Z,99.90
2019-02-26T18:34:05.715Z,99.90
2019-02-26T18:36:35.969Z,99.90
2019-02-26T18:39:07.222Z,99.90
2019-02-26T18:41:37.461Z,99.90
2019-02-26T18:44:09.534Z,99.90
2019-02-26T18:46:39.630Z,99.90
2019-02-26T18:49:09.868Z,99.90
2019-02-26T18:51:40.213Z,99.90
2019-02-26T18:54:10.485Z,99.90
2019-02-26T18:56:41.288Z,99.90
2019-02-26T18:59:11.603Z,99.90
2019-02-26T19:01:41.806Z,99.90
2019-02-26T19:04:13.961Z,99.90
2019-02-26T19:06:44.305Z,99.90
2019-02-26T19:09:14.774Z,99.90
2019-02-26T19:11:47.014Z,99.90
2019-02-26T19:14:17.582Z,99.90
2019-02-26T19:16:47.798Z,99.90
2019-02-26T19:19:18.373Z,99.90
2019-02-26T19:21:51.791Z,99.90
2019-02-26T19:24:22.063Z,99.90
2019-02-26T19:26:52.640Z,99.90
2019-02-26T19:29:22.974Z,99.90
2019-02-26T19:31:53.570Z,99.90
2019-02-26T19:34:27.935Z,99.90
2019-02-26T19:36:57.198Z,99.90
2019-02-26T19:39:28.520Z,99.90
2019-02-26T19:42:01.533Z,99.90
2019-02-26T19:44:35.700Z,99.90
2019-02-26T19:47:05.656Z,99.90
2019-02-26T19:49:39.670Z,99.90
2019-02-26T19:52:10.114Z,99.90
2019-02-26T19:54:42.558Z,99.90
2019-02-26T19:57:13.982Z,99.90
2019-02-26T19:59:47.206Z,99.90
2019-02-26T20:02:18.108Z,99.90
2019-02-26T20:04:49.410Z,99.90
2019-02-26T20:07:20.121Z,99.90
2019-02-26T20:09:50.610Z,99.90
2019-02-26T20:12:21.073Z,99.90
2019-02-26T20:14:51.691Z,99.90
2019-02-26T20:17:22.447Z,99.90
2019-02-26T20:19:52.764Z,99.90
2019-02-26T20:22:23.136Z,99.90
2019-02-26T20:24:53.532Z,99.90
2019-02-26T20:27:23.856Z,99.90
2019-02-26T20:29:54.219Z,99.90
2019-02-26T20:32:28.707Z,99.90
2019-02-26T20:34:56.950Z,99.90
2019-02-26T20:37:27.138Z,99.90
2019-02-26T20:39:57.373Z,99.90
2019-02-26T20:42:29.017Z,99.90
2019-02-26T20:44:59.817Z,99.90
2019-02-26T20:47:31.677Z,99.90
2019-02-26T20:50:02.113Z,99.90
2019-02-26T20:52:32.887Z,99.90
2019-02-26T20:55:04.111Z,99.90
2019-02-26T20:57:34.909Z,99.90
2019-02-26T21:00:06.871Z,99.90
2019-02-26T21:02:37.182Z,99.90
2019-02-26T21:05:07.437Z,99.90
2019-02-26T21:07:37.725Z,99.90
2019-02-26T21:10:08.231Z,99.90
2019-02-26T21:12:38.429Z,99.90
2019-02-26T21:15:13.601Z,99.90
2019-02-26T21:17:42.812Z,99.90
2019-02-26T21:20:13.213Z,99.90
2019-02-26T21:22:43.364Z,99.90
2019-02-26T21:25:13.713Z,99.90
2019-02-26T21:27:43.946Z,99.90
2019-02-26T21:30:15.973Z,99.90
2019-02-26T21:32:46.321Z,99.90
2019-02-26T21:35:19.912Z,99.90
2019-02-26T21:37:48.447Z,99.90
2019-02-26T21:40:18.798Z,99.90
2019-02-26T21:42:49.055Z,99.90
2019-02-26T21:45:19.336Z,99.90
2019-02-26T21:47:49.605Z,99.90
2019-02-26T21:50:22.109Z,99.90
2019-02-26T21:52:59.517Z,99.90
2019-02-26T21:55:23.542Z,99.90
2019-02-26T21:57:54.723Z,99.90
2019-02-26T22:00:25.533Z,99.90
2019-02-26T22:02:55.733Z,99.90
2019-02-26T22:05:25.920Z,99.90
2019-02-26T22:07:56.078Z,99.90
2019-02-26T22:10:26.425Z,99.90
2019-02-26T22:12:56.797Z,99.90
2019-02-26T22:15:27.489Z,99.90
2019-02-26T22:17:58.147Z,99.90
2019-02-26T22:20:36.154Z,99.90
2019-02-26T22:23:01.191Z,99.90
2019-02-26T22:25:31.270Z,99.90
2019-02-26T22:28:01.492Z,99.90
2019-02-26T22:30:31.820Z,99.90
2019-02-26T22:33:02.174Z,99.90
2019-02-26T22:35:32.341Z,99.90
2019-02-26T22:38:02.548Z,99.90
2019-02-26T22:40:34.231Z,99.90
2019-02-26T22:43:04.555Z,99.90
2019-02-26T22:45:34.841Z,99.90
2019-02-26T22:48:05.061Z,99.90
2019-02-26T22:50:35.277Z,99.90
2019-02-26T22:53:05.435Z,99.90
2019-02-26T22:55:35.570Z,99.90
2019-02-26T22:58:05.723Z,99.90
2019-02-26T23:01:20.177Z,99.90
2019-02-26T23:03:50.398Z,99.90
2019-02-26T23:06:20.738Z,99.90
2019-02-26T23:08:50.940Z,99.90
2019-02-26T23:11:22.022Z,99.90
2019-02-26T23:13:52.364Z,99.90
2019-02-26T23:16:23.057Z,99.90
2019-02-26T23:18:53.410Z,99.90
2019-02-26T23:21:23.627Z,99.90
2019-02-26T23:23:54.818Z,99.90
2019-02-26T23:26:25.897Z,99.90
2019-02-26T23:28:56.098Z,99.90
2019-02-26T23:31:26.551Z,99.90
2019-02-26T23:33:56.701Z,99.90
2019-02-26T23:36:28.575Z,99.90
2019-02-26T23:38:58.977Z,99.90
2019-02-26T23:41:30.785Z,99.90
2019-02-26T23:44:01.275Z,99.90
2019-02-26T23:46:31.533Z,99.90
2019-02-26T23:49:01.754Z,99.90
2019-02-26T23:51:31.948Z,99.90
2019-02-26T23:54:02.109Z,99.90
2019-02-26T23:56:32.465Z,99.90
2019-02-26T23:59:04.294Z,99.90
